Bayview, South Carolina
Current Conditions -  °F | °C
As of 1:53 AM on Saturday 29 Nov 2014 (Local Time) from KCUB Reporting Station
Haze Haze  
Wind Chill: 31°   Ceiling: Unl
Heat Index: 31°   Visibility: 6mi
Dew Point: 28°   Wind: 0mph
Humidity: 89%   Direction: NA
Pressure: 30.33"   Gusts: NA
Location:  34.0268°N, 81.0007°W
Report Text: KCUB 290653Z AUTO 00000KT 6SM BR CLR M01/M02 A3033 RMK AO2 SLP270 T10061022
Loading
Personal Weather Stations






























Interactive Weather Map New forecast layout! Learn more

10-Day Weather Forecast

Advertisements
Track Severe Weather on mobile